Time;durP1;ratioP1;P1;durP2;ratioP2;P2;SDS_P1;SDS_P2;PMS_P1;PMS_P2;Temp;Humidity;BMP_temperature;BMP_pressure;BME280_temperature;BME280_humidity;BME280_pressure;Samples;Min_cycle;Max_cycle;Signal;HPM_P1;HPM_P2
2023/12/20 00:02:04;;;;;;;17.73;3.50;;;;;;;;;;6390115;22;20010;-76
2023/12/20 00:04:29;;;;;;;10.18;3.70;;;;;;;;;;6390752;22;20036;-76
2023/12/20 00:06:54;;;;;;;9.63;2.67;;;;;;;;;;6362417;22;20026;-76
2023/12/20 00:09:20;;;;;;;14.00;2.85;;;;;;;;;;6390927;22;20147;-76
2023/12/20 00:11:46;;;;;;;4.32;1.38;;;;;;;;;;6363392;22;19998;-76
2023/12/20 00:14:11;;;;;;;10.65;2.85;;;;;;;;;;6363293;22;20102;-76
2023/12/20 00:16:36;;;;;;;8.23;2.50;;;;;;;;;;6390196;22;20037;-76
2023/12/20 00:19:02;;;;;;;6.00;2.30;;;;;;;;;;6391130;22;20006;-76
2023/12/20 00:21:27;;;;;;;16.67;2.65;;;;;;;;;;6362284;22;20017;-76
2023/12/20 00:23:53;;;;;;;13.32;2.38;;;;;;;;;;6391298;22;20448;-76
2023/12/20 00:26:18;;;;;;;9.38;2.50;;;;;;;;;;6391420;22;20054;-75
2023/12/20 00:28:44;;;;;;;17.05;2.72;;;;;;;;;;6362128;22;20018;-76
2023/12/20 00:31:09;;;;;;;7.57;2.50;;;;;;;;;;6390168;22;20018;-76
2023/12/20 00:33:34;;;;;;;6.75;2.10;;;;;;;;;;6390946;22;20006;-76
2023/12/20 00:36:00;;;;;;;15.23;2.55;;;;;;;;;;6389744;22;20005;-75
2023/12/20 00:38:25;;;;;;;9.32;2.30;;;;;;;;;;6363640;22;20008;-75
2023/12/20 00:40:51;;;;;;;16.52;2.97;;;;;;;;;;6391324;22;20009;-75
2023/12/20 00:43:16;;;;;;;7.93;2.08;;;;;;;;;;6361866;22;20715;-76
2023/12/20 00:45:41;;;;;;;10.10;2.55;;;;;;;;;;6390706;22;20077;-75
2023/12/20 00:48:07;;;;;;;12.05;2.67;;;;;;;;;;6362570;22;20399;-76
2023/12/20 00:50:32;;;;;;;16.98;2.58;;;;;;;;;;6362864;22;20047;-75
2023/12/20 00:52:58;;;;;;;15.50;3.17;;;;;;;;;;6389518;22;20038;-76
2023/12/20 00:55:23;;;;;;;14.95;3.60;;;;;;;;;;6363052;22;20017;-75
2023/12/20 00:57:48;;;;;;;13.73;2.70;;;;;;;;;;6393191;22;20402;-76
2023/12/20 01:00:14;;;;;;;13.95;3.63;;;;;;;;;;6373056;22;20018;-76
2023/12/20 01:02:40;;;;;;;18.75;3.13;;;;;;;;;;6406804;22;19998;-76
2023/12/20 01:05:07;;;;;;;12.80;3.58;;;;;;;;;;6392360;22;20017;-76
2023/12/20 01:07:32;;;;;;;21.13;4.10;;;;;;;;;;6362267;22;20026;-76
2023/12/20 01:09:58;;;;;;;17.80;3.70;;;;;;;;;;6361889;22;20088;-76
2023/12/20 01:12:23;;;;;;;11.98;3.72;;;;;;;;;;6390708;22;20627;-76
2023/12/20 01:14:48;;;;;;;13.77;4.05;;;;;;;;;;6390182;22;20135;-76
2023/12/20 01:17:16;;;;;;;24.02;4.13;;;;;;;;;;6363558;22;20420;-76
2023/12/20 01:19:41;;;;;;;15.38;3.20;;;;;;;;;;6390437;22;20473;-76
2023/12/20 01:22:07;;;;;;;16.42;3.67;;;;;;;;;;6390271;22;20033;-75
2023/12/20 01:24:32;;;;;;;7.60;3.00;;;;;;;;;;6361535;22;20002;-75
2023/12/20 01:26:58;;;;;;;17.50;3.47;;;;;;;;;;6362176;22;20002;-75
2023/12/20 01:29:23;;;;;;;17.60;3.95;;;;;;;;;;6390401;22;19998;-76
2023/12/20 01:31:48;;;;;;;10.77;3.58;;;;;;;;;;6361693;22;20084;-76
2023/12/20 01:34:14;;;;;;;13.30;3.88;;;;;;;;;;6389606;22;20005;-76
2023/12/20 01:36:39;;;;;;;19.10;4.07;;;;;;;;;;6389054;22;20435;-76
2023/12/20 01:39:04;;;;;;;16.48;3.60;;;;;;;;;;6390249;22;19994;-75
2023/12/20 01:41:30;;;;;;;14.50;2.97;;;;;;;;;;6362639;22;20089;-75
2023/12/20 01:43:55;;;;;;;12.18;3.40;;;;;;;;;;6387791;22;20102;-75
2023/12/20 01:46:21;;;;;;;15.13;3.00;;;;;;;;;;6390100;22;20002;-75
2023/12/20 01:48:47;;;;;;;20.75;4.40;;;;;;;;;;6361359;22;20018;-75
2023/12/20 01:51:13;;;;;;;24.10;3.95;;;;;;;;;;6361757;22;20059;-76
2023/12/20 01:53:40;;;;;;;8.23;3.03;;;;;;;;;;6390755;22;19997;-76
2023/12/20 01:56:06;;;;;;;9.73;2.90;;;;;;;;;;6389443;22;20758;-75
2023/12/20 01:58:32;;;;;;;12.73;3.28;;;;;;;;;;6361367;22;20097;-76
2023/12/20 02:00:58;;;;;;;12.10;3.55;;;;;;;;;;6360608;22;20010;-75
2023/12/20 02:03:23;;;;;;;15.98;3.78;;;;;;;;;;6390271;22;20021;-75
2023/12/20 02:05:50;;;;;;;20.38;4.55;;;;;;;;;;6362226;22;20453;-75
2023/12/20 02:08:15;;;;;;;17.23;3.90;;;;;;;;;;6361999;22;20016;-75
2023/12/20 02:10:41;;;;;;;16.15;4.25;;;;;;;;;;6390165;22;20006;-75
2023/12/20 02:13:07;;;;;;;12.88;4.05;;;;;;;;;;6389730;22;20016;-75
2023/12/20 02:15:32;;;;;;;17.15;4.38;;;;;;;;;;6391219;22;20056;-75
2023/12/20 02:17:58;;;;;;;16.05;4.43;;;;;;;;;;6393550;22;20004;-75
2023/12/20 02:20:23;;;;;;;14.75;3.78;;;;;;;;;;6404727;22;19990;-75
2023/12/20 02:22:48;;;;;;;21.08;4.57;;;;;;;;;;6410956;22;20028;-75
2023/12/20 02:25:14;;;;;;;16.05;3.63;;;;;;;;;;6395158;22;20113;-75
2023/12/20 02:27:40;;;;;;;10.07;3.80;;;;;;;;;;6391100;22;20014;-75
2023/12/20 02:30:06;;;;;;;9.93;3.70;;;;;;;;;;6362023;22;20743;-74
2023/12/20 02:32:31;;;;;;;19.90;4.32;;;;;;;;;;6362264;22;19994;-75
2023/12/20 02:34:58;;;;;;;10.70;3.20;;;;;;;;;;6388930;22;20097;-75
2023/12/20 02:37:23;;;;;;;15.52;3.75;;;;;;;;;;6389583;22;20021;-75
2023/12/20 02:39:49;;;;;;;15.63;3.75;;;;;;;;;;6389823;22;20009;-75
2023/12/20 02:42:14;;;;;;;12.70;3.33;;;;;;;;;;6389320;22;20006;-75
2023/12/20 02:44:39;;;;;;;22.08;3.70;;;;;;;;;;6390541;22;20008;-75
2023/12/20 02:47:05;;;;;;;18.52;3.70;;;;;;;;;;6390000;22;20014;-75
2023/12/20 02:49:30;;;;;;;13.68;3.95;;;;;;;;;;6360574;22;20101;-76
2023/12/20 02:51:56;;;;;;;18.42;4.57;;;;;;;;;;6389427;22;20044;-75
2023/12/20 02:54:21;;;;;;;16.13;3.55;;;;;;;;;;6361372;22;20380;-75
2023/12/20 02:56:47;;;;;;;21.52;4.43;;;;;;;;;;6389902;22;20002;-75
2023/12/20 02:59:12;;;;;;;12.57;4.05;;;;;;;;;;6360737;22;20062;-75
2023/12/20 03:01:45;;;;;;;15.60;4.40;;;;;;;;;;6389710;22;20361;-75
2023/12/20 03:04:11;;;;;;;13.68;3.42;;;;;;;;;;6360636;22;20016;-74
2023/12/20 03:06:36;;;;;;;12.48;3.38;;;;;;;;;;6360432;22;20014;-75
2023/12/20 03:09:02;;;;;;;9.73;3.25;;;;;;;;;;6389729;22;20009;-75
2023/12/20 03:11:28;;;;;;;12.68;3.35;;;;;;;;;;6360930;22;20002;-75
2023/12/20 03:13:54;;;;;;;10.00;2.90;;;;;;;;;;6361275;22;20014;-75
2023/12/20 03:16:19;;;;;;;17.95;3.95;;;;;;;;;;6360869;22;20031;-75
2023/12/20 03:18:44;;;;;;;17.02;3.40;;;;;;;;;;6389279;22;20788;-75
2023/12/20 03:21:10;;;;;;;13.07;3.63;;;;;;;;;;6360304;22;20055;-75
2023/12/20 03:23:35;;;;;;;14.18;3.33;;;;;;;;;;6390162;22;20002;-75
2023/12/20 03:26:00;;;;;;;13.10;3.70;;;;;;;;;;6360549;22;20009;-75
2023/12/20 03:28:26;;;;;;;15.10;3.72;;;;;;;;;;6361557;22;20021;-75
2023/12/20 03:30:52;;;;;;;13.27;3.35;;;;;;;;;;6389001;22;20139;-75
2023/12/20 03:33:17;;;;;;;14.63;3.40;;;;;;;;;;6361182;22;20047;-75
2023/12/20 03:35:42;;;;;;;13.15;3.30;;;;;;;;;;6391015;22;20425;-75
2023/12/20 03:38:08;;;;;;;12.90;3.63;;;;;;;;;;6396038;22;20013;-74
2023/12/20 03:40:33;;;;;;;11.88;2.80;;;;;;;;;;6405250;22;20013;-75
2023/12/20 03:42:59;;;;;;;10.18;3.28;;;;;;;;;;6400071;22;20024;-76
2023/12/20 03:45:25;;;;;;;11.98;3.50;;;;;;;;;;6390757;22;20013;-74
2023/12/20 03:47:54;;;;;;;26.95;4.78;;;;;;;;;;6390988;22;19993;-74
2023/12/20 03:50:20;;;;;;;11.02;3.20;;;;;;;;;;6391838;22;20912;-74
2023/12/20 03:52:46;;;;;;;15.20;3.47;;;;;;;;;;6362042;22;20551;-75
2023/12/20 03:55:11;;;;;;;19.77;4.05;;;;;;;;;;6391115;22;20033;-75
2023/12/20 03:57:36;;;;;;;13.27;3.30;;;;;;;;;;6362604;22;20021;-75
2023/12/20 04:00:02;;;;;;;13.25;3.55;;;;;;;;;;6362205;22;20089;-75
2023/12/20 04:02:28;;;;;;;11.75;3.60;;;;;;;;;;6363439;22;20037;-75
2023/12/20 04:04:53;;;;;;;15.80;3.63;;;;;;;;;;6391228;22;20014;-75
2023/12/20 04:07:18;;;;;;;13.73;3.40;;;;;;;;;;6390222;22;20026;-75
2023/12/20 04:09:44;;;;;;;14.80;3.92;;;;;;;;;;6391482;22;20407;-75
2023/12/20 04:12:09;;;;;;;7.22;2.33;;;;;;;;;;6390525;22;20006;-75
2023/12/20 04:14:34;;;;;;;6.57;2.35;;;;;;;;;;6363048;22;20008;-76
2023/12/20 04:17:00;;;;;;;12.15;2.42;;;;;;;;;;6361819;22;20049;-75
2023/12/20 04:19:25;;;;;;;7.47;2.45;;;;;;;;;;6362385;22;20009;-75
2023/12/20 04:21:50;;;;;;;9.77;2.95;;;;;;;;;;6390840;22;20028;-75
2023/12/20 04:24:16;;;;;;;7.93;2.88;;;;;;;;;;6390570;22;20010;-75
2023/12/20 04:26:41;;;;;;;8.00;2.85;;;;;;;;;;6391611;22;20073;-74
2023/12/20 04:29:06;;;;;;;9.05;2.45;;;;;;;;;;6390666;22;20010;-75
2023/12/20 04:31:32;;;;;;;5.90;2.40;;;;;;;;;;6361748;22;20014;-75
2023/12/20 04:33:57;;;;;;;14.52;2.75;;;;;;;;;;6390679;22;20063;-75
2023/12/20 04:36:23;;;;;;;7.40;2.38;;;;;;;;;;6390755;22;20070;-75
2023/12/20 04:38:51;;;;;;;14.82;2.60;;;;;;;;;;6390731;22;20025;-75
2023/12/20 04:41:18;;;;;;;9.45;2.38;;;;;;;;;;6390851;22;19994;-75
2023/12/20 04:43:44;;;;;;;13.00;3.15;;;;;;;;;;6391303;22;20013;-75
2023/12/20 04:46:09;;;;;;;11.10;2.28;;;;;;;;;;6390011;22;20005;-75
2023/12/20 04:48:34;;;;;;;8.88;2.60;;;;;;;;;;6390432;22;20016;-75
2023/12/20 04:51:00;;;;;;;7.78;2.35;;;;;;;;;;6362681;22;20725;-75
2023/12/20 04:53:25;;;;;;;8.60;2.30;;;;;;;;;;6363565;22;19998;-74
2023/12/20 04:55:51;;;;;;;12.05;2.60;;;;;;;;;;6393206;22;20491;-76
2023/12/20 04:58:16;;;;;;;10.38;2.47;;;;;;;;;;6372505;22;20014;-75
2023/12/20 05:00:41;;;;;;;10.00;2.47;;;;;;;;;;6409378;22;20030;-75
2023/12/20 05:03:07;;;;;;;5.75;2.72;;;;;;;;;;6403346;22;20078;-76
2023/12/20 05:05:33;;;;;;;11.63;2.88;;;;;;;;;;6365492;22;20022;-76
2023/12/20 05:07:58;;;;;;;9.35;2.35;;;;;;;;;;6363590;22;20013;-76
2023/12/20 05:10:24;;;;;;;18.77;3.33;;;;;;;;;;6390788;22;20016;-76
2023/12/20 05:12:49;;;;;;;8.68;2.40;;;;;;;;;;6390874;22;20024;-75
2023/12/20 05:15:14;;;;;;;12.63;2.67;;;;;;;;;;6390487;22;20375;-75
2023/12/20 05:17:40;;;;;;;7.30;2.60;;;;;;;;;;6390789;22;20516;-76
2023/12/20 05:20:06;;;;;;;7.05;2.20;;;;;;;;;;6361586;22;20881;-76
2023/12/20 05:22:32;;;;;;;8.13;2.65;;;;;;;;;;6361923;22;20487;-75
2023/12/20 05:24:58;;;;;;;6.88;2.40;;;;;;;;;;6390234;22;20014;-75
2023/12/20 05:27:23;;;;;;;7.88;1.80;;;;;;;;;;6361400;22;20013;-75
2023/12/20 05:29:49;;;;;;;13.85;2.85;;;;;;;;;;6390227;22;20006;-75
2023/12/20 05:32:15;;;;;;;9.52;2.40;;;;;;;;;;6362467;22;20013;-75
2023/12/20 05:34:41;;;;;;;12.20;2.17;;;;;;;;;;6360653;22;20010;-75
2023/12/20 05:37:06;;;;;;;8.65;2.63;;;;;;;;;;6390145;22;20048;-76
2023/12/20 05:39:31;;;;;;;8.02;2.63;;;;;;;;;;6361356;22;20020;-75
2023/12/20 05:41:57;;;;;;;9.57;2.35;;;;;;;;;;6389701;22;20086;-75
2023/12/20 05:44:22;;;;;;;10.27;2.80;;;;;;;;;;6390672;22;19994;-75
2023/12/20 05:46:47;;;;;;;11.90;2.45;;;;;;;;;;6390002;22;20294;-76
2023/12/20 05:49:13;;;;;;;7.90;2.65;;;;;;;;;;6389618;22;20014;-76
2023/12/20 05:51:39;;;;;;;14.60;3.08;;;;;;;;;;6389696;22;20117;-76
2023/12/20 05:54:04;;;;;;;7.85;2.30;;;;;;;;;;6388466;22;20001;-76
2023/12/20 05:56:29;;;;;;;8.75;2.35;;;;;;;;;;6390199;22;20086;-76
2023/12/20 05:58:55;;;;;;;10.60;2.75;;;;;;;;;;6388896;22;20140;-76
2023/12/20 06:01:20;;;;;;;12.35;1.90;;;;;;;;;;6361067;22;20031;-76
2023/12/20 06:03:45;;;;;;;8.25;2.50;;;;;;;;;;6389638;22;20021;-78
2023/12/20 06:06:12;;;;;;;9.48;2.25;;;;;;;;;;6390117;22;20022;-76
2023/12/20 06:08:38;;;;;;;11.50;2.53;;;;;;;;;;6359696;22;19997;-75
2023/12/20 06:11:03;;;;;;;15.23;2.30;;;;;;;;;;6390260;22;20377;-76
2023/12/20 06:13:28;;;;;;;13.63;2.35;;;;;;;;;;6389930;22;20369;-76
2023/12/20 06:15:57;;;;;;;9.18;2.25;;;;;;;;;;6393149;22;20026;-76
2023/12/20 06:18:22;;;;;;;13.80;2.40;;;;;;;;;;6403200;22;20271;-76
2023/12/20 06:20:48;;;;;;;17.55;2.90;;;;;;;;;;6402324;22;20540;-76
2023/12/20 06:23:13;;;;;;;11.73;2.45;;;;;;;;;;6363138;22;19994;-75
2023/12/20 06:25:39;;;;;;;10.65;2.40;;;;;;;;;;6390380;22;20116;-76
2023/12/20 06:28:05;;;;;;;10.38;2.70;;;;;;;;;;6389388;22;20892;-76
2023/12/20 06:30:32;;;;;;;9.90;2.45;;;;;;;;;;6389238;22;20369;-75
2023/12/20 06:32:58;;;;;;;10.30;2.90;;;;;;;;;;6388861;22;20077;-75
2023/12/20 06:35:24;;;;;;;11.98;2.30;;;;;;;;;;6360284;22;20025;-75
2023/12/20 06:37:49;;;;;;;14.27;2.15;;;;;;;;;;6389038;22;20029;-75
2023/12/20 06:40:15;;;;;;;10.40;2.35;;;;;;;;;;6389907;22;20013;-76
2023/12/20 06:42:41;;;;;;;23.00;2.45;;;;;;;;;;6360857;22;20013;-76
2023/12/20 06:45:07;;;;;;;7.95;2.28;;;;;;;;;;6388820;22;20006;-76
2023/12/20 06:47:32;;;;;;;11.55;2.35;;;;;;;;;;6361181;22;20387;-75
2023/12/20 06:49:57;;;;;;;9.02;2.75;;;;;;;;;;6361603;22;20200;-76
2023/12/20 06:52:23;;;;;;;7.25;2.10;;;;;;;;;;6387007;22;20013;-75
2023/12/20 06:54:48;;;;;;;8.70;2.10;;;;;;;;;;6361402;22;20025;-75
2023/12/20 06:57:14;;;;;;;5.35;1.85;;;;;;;;;;6360353;22;20018;-76
2023/12/20 06:59:40;;;;;;;7.38;2.05;;;;;;;;;;6389797;22;20006;-76
2023/12/20 07:02:06;;;;;;;13.20;2.25;;;;;;;;;;6389054;22;20465;-76
2023/12/20 07:04:31;;;;;;;12.50;2.53;;;;;;;;;;6361305;22;20028;-76
2023/12/20 07:07:00;;;;;;;15.85;2.42;;;;;;;;;;6360296;22;20022;-76
2023/12/20 07:09:26;;;;;;;8.60;1.83;;;;;;;;;;6389346;22;20014;-76
2023/12/20 07:11:51;;;;;;;10.13;2.20;;;;;;;;;;6361697;22;19998;-76
2023/12/20 07:14:17;;;;;;;11.82;2.25;;;;;;;;;;6392132;22;20051;-75
2023/12/20 07:16:42;;;;;;;11.57;2.22;;;;;;;;;;6391770;22;20071;-75
2023/12/20 07:19:08;;;;;;;10.48;2.35;;;;;;;;;;6391507;22;20127;-76
2023/12/20 07:21:33;;;;;;;4.82;1.50;;;;;;;;;;6391226;22;20130;-76
2023/12/20 07:23:58;;;;;;;9.18;2.10;;;;;;;;;;6390909;22;20076;-76
2023/12/20 07:26:24;;;;;;;5.88;1.80;;;;;;;;;;6363558;22;19993;-76
2023/12/20 07:28:49;;;;;;;8.02;2.30;;;;;;;;;;6392152;22;20491;-75
2023/12/20 07:31:18;;;;;;;15.88;2.22;;;;;;;;;;6391480;22;20432;-76
2023/12/20 07:33:43;;;;;;;7.43;2.15;;;;;;;;;;6364593;22;20028;-76
2023/12/20 07:36:09;;;;;;;7.40;2.50;;;;;;;;;;6398957;22;20017;-76
2023/12/20 07:38:34;;;;;;;10.65;2.42;;;;;;;;;;6411077;22;20001;-76
2023/12/20 07:41:00;;;;;;;7.47;2.40;;;;;;;;;;6406880;22;20031;-76
2023/12/20 07:43:25;;;;;;;7.75;2.58;;;;;;;;;;6392817;22;20119;-75
2023/12/20 07:45:50;;;;;;;8.45;2.30;;;;;;;;;;6392526;22;20084;-76
2023/12/20 07:48:16;;;;;;;10.82;2.85;;;;;;;;;;6391754;22;20009;-76
2023/12/20 07:50:42;;;;;;;6.40;2.42;;;;;;;;;;6363783;22;20046;-76
2023/12/20 07:53:07;;;;;;;15.68;2.67;;;;;;;;;;6390714;22;20006;-76
2023/12/20 07:55:33;;;;;;;8.82;2.30;;;;;;;;;;6363049;22;20017;-75
2023/12/20 07:57:59;;;;;;;17.13;2.92;;;;;;;;;;6362690;22;20025;-75
2023/12/20 08:00:24;;;;;;;14.15;3.05;;;;;;;;;;6391718;22;20018;-76
2023/12/20 08:02:50;;;;;;;14.65;2.40;;;;;;;;;;6362421;22;20009;-76
2023/12/20 08:05:15;;;;;;;12.20;2.47;;;;;;;;;;6363074;22;20006;-76
2023/12/20 08:07:40;;;;;;;11.10;2.55;;;;;;;;;;6390933;22;20052;-75
2023/12/20 08:10:06;;;;;;;9.57;2.75;;;;;;;;;;6388935;22;20065;-76
2023/12/20 08:12:32;;;;;;;11.73;2.40;;;;;;;;;;6391124;22;20480;-75
2023/12/20 08:14:57;;;;;;;13.07;2.90;;;;;;;;;;6391464;22;19997;-75
2023/12/20 08:17:23;;;;;;;14.32;2.70;;;;;;;;;;6391421;22;20077;-75
2023/12/20 08:19:49;;;;;;;8.10;2.53;;;;;;;;;;6390368;22;20017;-75
2023/12/20 08:22:14;;;;;;;12.77;2.30;;;;;;;;;;6389956;22;20071;-75
2023/12/20 08:24:40;;;;;;;12.02;2.25;;;;;;;;;;6388775;22;20049;-75
2023/12/20 08:27:05;;;;;;;6.75;2.13;;;;;;;;;;6390410;22;20027;-75
2023/12/20 08:29:30;;;;;;;10.30;2.22;;;;;;;;;;6390649;22;20012;-75
2023/12/20 08:31:56;;;;;;;11.18;2.55;;;;;;;;;;6390106;22;20014;-75
2023/12/20 08:34:22;;;;;;;12.75;2.47;;;;;;;;;;6389687;22;20394;-75
2023/12/20 08:36:47;;;;;;;12.98;2.30;;;;;;;;;;6362546;22;20022;-75
2023/12/20 08:39:12;;;;;;;5.25;2.50;;;;;;;;;;6389167;22;20005;-74
2023/12/20 08:41:38;;;;;;;11.50;2.65;;;;;;;;;;6362935;22;20006;-75
2023/12/20 08:44:03;;;;;;;13.13;2.10;;;;;;;;;;6362340;22;20016;-75
2023/12/20 08:46:29;;;;;;;12.13;3.35;;;;;;;;;;6390852;22;20089;-75
2023/12/20 08:48:55;;;;;;;9.38;2.72;;;;;;;;;;6362791;22;20619;-75
2023/12/20 08:51:22;;;;;;;10.43;2.33;;;;;;;;;;6391596;22;20627;-75
2023/12/20 08:53:55;;;;;;;16.48;2.72;;;;;;;;;;6364722;22;19997;-75
2023/12/20 08:56:20;;;;;;;10.35;2.38;;;;;;;;;;6404002;22;20607;-75
2023/12/20 08:58:47;;;;;;;12.60;2.50;;;;;;;;;;6404478;22;20010;-75
2023/12/20 09:01:13;;;;;;;11.57;3.20;;;;;;;;;;6389417;22;20029;-75
2023/12/20 09:03:39;;;;;;;17.13;3.05;;;;;;;;;;6361466;22;20365;-75
2023/12/20 09:06:05;;;;;;;10.30;1.88;;;;;;;;;;6389482;22;20137;-75
2023/12/20 09:08:30;;;;;;;13.20;2.47;;;;;;;;;;6390975;22;20077;-75
2023/12/20 09:10:56;;;;;;;10.18;2.70;;;;;;;;;;6360591;22;20331;-75
2023/12/20 09:13:26;;;;;;;15.00;4.05;;;;;;;;;;6361491;22;20010;-75
2023/12/20 09:15:51;;;;;;;6.72;2.10;;;;;;;;;;6361347;22;20010;-75
2023/12/20 09:18:17;;;;;;;10.27;2.70;;;;;;;;;;6389717;22;20006;-75
2023/12/20 09:20:42;;;;;;;10.80;2.38;;;;;;;;;;6390198;22;20111;-74
2023/12/20 09:23:08;;;;;;;9.38;2.05;;;;;;;;;;6388346;22;20491;-74
2023/12/20 09:25:33;;;;;;;10.75;2.55;;;;;;;;;;6389101;22;20040;-75
2023/12/20 09:27:58;;;;;;;18.48;3.20;;;;;;;;;;6389480;22;20381;-75
2023/12/20 09:30:24;;;;;;;10.30;2.83;;;;;;;;;;6360629;22;20017;-75
2023/12/20 09:32:49;;;;;;;17.48;3.25;;;;;;;;;;6389522;22;20489;-74
2023/12/20 09:35:14;;;;;;;12.65;2.15;;;;;;;;;;6388392;22;20507;-74
2023/12/20 09:37:44;;;;;;;12.07;2.67;;;;;;;;;;6361500;22;20361;-74
2023/12/20 09:40:12;;;;;;;12.30;2.55;;;;;;;;;;6360939;22;20013;-75
2023/12/20 09:42:50;;;;;;;9.32;2.00;;;;;;;;;;6389154;22;20519;-75
2023/12/20 09:45:19;;;;;;;11.63;2.50;;;;;;;;;;6388705;22;20013;-78
2023/12/20 09:47:45;;;;;;;11.13;2.22;;;;;;;;;;6362100;22;20001;-76
2023/12/20 09:50:12;;;;;;;10.43;2.55;;;;;;;;;;6361136;22;20041;-76
2023/12/20 09:52:39;;;;;;;9.93;2.47;;;;;;;;;;6360882;22;20012;-78
2023/12/20 09:55:05;;;;;;;10.75;2.00;;;;;;;;;;6383066;22;20020;-77
2023/12/20 09:57:32;;;;;;;8.90;2.25;;;;;;;;;;6358524;22;20411;-77
2023/12/20 09:59:57;;;;;;;12.23;2.70;;;;;;;;;;6387653;22;20077;-77
2023/12/20 10:02:27;;;;;;;8.73;2.30;;;;;;;;;;6389983;22;20069;-77
2023/12/20 10:04:52;;;;;;;6.03;2.15;;;;;;;;;;6389411;22;20006;-77
2023/12/20 10:07:18;;;;;;;15.15;2.60;;;;;;;;;;6361221;22;20102;-77
2023/12/20 10:09:44;;;;;;;11.48;2.38;;;;;;;;;;6362430;22;20417;-78
2023/12/20 10:12:09;;;;;;;13.10;2.60;;;;;;;;;;6364290;22;20002;-77
2023/12/20 10:14:34;;;;;;;9.43;2.95;;;;;;;;;;6373653;22;20065;-76
2023/12/20 10:17:04;;;;;;;14.73;2.92;;;;;;;;;;6382774;22;20021;-75
2023/12/20 10:19:29;;;;;;;8.70;2.10;;;;;;;;;;6370324;22;20712;-75
2023/12/20 10:21:55;;;;;;;14.68;2.35;;;;;;;;;;6391859;22;20014;-75
2023/12/20 10:24:21;;;;;;;10.00;2.50;;;;;;;;;;6389794;22;20069;-76
2023/12/20 10:26:46;;;;;;;11.77;2.38;;;;;;;;;;6389905;22;20022;-75
2023/12/20 10:29:12;;;;;;;13.95;2.90;;;;;;;;;;6361885;22;20085;-78
2023/12/20 10:31:42;;;;;;;13.68;2.97;;;;;;;;;;6361023;22;20017;-78
2023/12/20 10:34:07;;;;;;;10.32;2.25;;;;;;;;;;6360851;22;20900;-77
2023/12/20 10:36:33;;;;;;;14.40;2.67;;;;;;;;;;6361285;22;20014;-77
2023/12/20 10:38:59;;;;;;;8.82;2.00;;;;;;;;;;6361357;22;20009;-77
2023/12/20 10:41:28;;;;;;;13.32;3.00;;;;;;;;;;6361526;22;20452;-77
2023/12/20 10:44:04;;;;;;;12.02;2.40;;;;;;;;;;6389576;22;20005;-75
2023/12/20 10:46:32;;;;;;;11.63;4.05;;;;;;;;;;6389439;22;20014;-75
2023/12/20 10:48:57;;;;;;;9.07;2.88;;;;;;;;;;6360484;22;20086;-75
2023/12/20 10:51:26;;;;;;;16.83;2.60;;;;;;;;;;6389869;22;20021;-77
2023/12/20 10:53:52;;;;;;;12.55;2.88;;;;;;;;;;6387786;22;20032;-75
2023/12/20 10:56:18;;;;;;;11.45;2.70;;;;;;;;;;6389211;22;20006;-75
2023/12/20 10:58:46;;;;;;;11.90;2.63;;;;;;;;;;6360456;22;20009;-76
2023/12/20 11:01:20;;;;;;;8.93;2.60;;;;;;;;;;6360757;22;20125;-75
2023/12/20 11:03:54;;;;;;;;;;;;;;;;;;6388717;22;20017;-75
2023/12/20 11:06:19;;;;;;;8.00;2.42;;;;;;;;;;6389302;22;19921;-75
2023/12/20 11:08:51;;;;;;;9.98;2.35;;;;;;;;;;6389510;22;20001;-75
2023/12/20 11:11:35;;;;;;;8.15;2.78;;;;;;;;;;6388871;22;20493;-75
2023/12/20 11:14:03;;;;;;;14.70;3.15;;;;;;;;;;6388672;22;20021;-75
2023/12/20 11:16:28;;;;;;;10.38;2.33;;;;;;;;;;6389098;22;20013;-75
2023/12/20 11:18:53;;;;;;;12.75;2.40;;;;;;;;;;6388172;22;20006;-75
2023/12/20 11:21:20;;;;;;;11.77;2.42;;;;;;;;;;6388872;22;20018;-76
2023/12/20 11:23:45;;;;;;;6.82;2.15;;;;;;;;;;6360682;22;20001;-76
2023/12/20 11:26:11;;;;;;;9.27;2.53;;;;;;;;;;6359863;22;20010;-75
2023/12/20 11:28:36;;;;;;;8.43;2.60;;;;;;;;;;6389379;22;20002;-75
2023/12/20 11:31:02;;;;;;;12.02;2.33;;;;;;;;;;6362639;22;20010;-76
2023/12/20 11:33:38;;;;;;;13.23;2.90;;;;;;;;;;6400872;22;20014;-75
2023/12/20 11:36:12;;;;;;;11.15;2.42;;;;;;;;;;6375971;22;20025;-75
2023/12/20 11:38:38;;;;;;;12.60;2.53;;;;;;;;;;6389963;22;20456;-75
2023/12/20 11:41:06;;;;;;;12.40;2.83;;;;;;;;;;6386579;22;20013;-75
2023/12/20 11:43:39;;;;;;;6.68;2.40;;;;;;;;;;6388246;22;20010;-75
2023/12/20 11:46:05;;;;;;;11.60;2.80;;;;;;;;;;6388066;22;20017;-75
2023/12/20 11:48:31;;;;;;;14.80;3.15;;;;;;;;;;6388344;22;20721;-75
2023/12/20 11:50:57;;;;;;;11.30;2.60;;;;;;;;;;6387742;22;20024;-74
2023/12/20 11:53:22;;;;;;;14.98;2.65;;;;;;;;;;6359879;22;20004;-75
2023/12/20 11:55:49;;;;;;;12.02;2.38;;;;;;;;;;6385813;22;20074;-75
2023/12/20 11:58:16;;;;;;;10.02;2.42;;;;;;;;;;6386692;22;20475;-75
2023/12/20 12:00:43;;;;;;;10.82;2.65;;;;;;;;;;6361846;22;20005;-75
2023/12/20 12:03:09;;;;;;;13.50;2.15;;;;;;;;;;6390287;22;20037;-75
2023/12/20 12:05:35;;;;;;;9.07;2.15;;;;;;;;;;6390137;22;20067;-75
2023/12/20 12:08:01;;;;;;;10.63;2.55;;;;;;;;;;6391216;22;20013;-75
2023/12/20 12:10:26;;;;;;;10.88;2.47;;;;;;;;;;6362031;22;20102;-75
2023/12/20 12:12:52;;;;;;;11.80;2.75;;;;;;;;;;6361726;22;20014;-75
2023/12/20 12:15:17;;;;;;;14.27;2.03;;;;;;;;;;6389740;22;20009;-75
2023/12/20 12:17:43;;;;;;;11.25;2.05;;;;;;;;;;6391952;22;20410;-75
2023/12/20 12:20:09;;;;;;;14.82;2.72;;;;;;;;;;6389880;22;20409;-75
2023/12/20 12:22:36;;;;;;;11.52;2.58;;;;;;;;;;6362456;22;20029;-75
2023/12/20 12:25:12;;;;;;;8.05;2.65;;;;;;;;;;6390011;22;20035;-75
2023/12/20 12:27:40;;;;;;;6.80;2.20;;;;;;;;;;6390215;22;20025;-75
2023/12/20 12:30:07;;;;;;;10.20;2.65;;;;;;;;;;6362588;22;20441;-75
2023/12/20 12:32:33;;;;;;;8.63;2.40;;;;;;;;;;6362442;22;20503;-75
2023/12/20 12:34:58;;;;;;;13.23;3.60;;;;;;;;;;6389659;22;20488;-75
2023/12/20 12:37:24;;;;;;;18.08;3.67;;;;;;;;;;6388915;22;20018;-76
2023/12/20 12:39:50;;;;;;;16.13;2.30;;;;;;;;;;6361749;22;20508;-75
2023/12/20 12:42:15;;;;;;;13.45;2.95;;;;;;;;;;6390372;22;20036;-75
2023/12/20 12:44:41;;;;;;;12.38;3.13;;;;;;;;;;6391867;22;20004;-75
2023/12/20 12:47:06;;;;;;;11.52;2.70;;;;;;;;;;6362920;22;20006;-75
2023/12/20 12:49:32;;;;;;;12.75;3.17;;;;;;;;;;6393614;22;20557;-75
2023/12/20 12:51:58;;;;;;;13.35;3.03;;;;;;;;;;6401930;22;20080;-75
2023/12/20 12:54:24;;;;;;;13.20;3.13;;;;;;;;;;6410960;22;20016;-75
2023/12/20 12:56:50;;;;;;;14.43;3.13;;;;;;;;;;6401028;22;20029;-75
2023/12/20 12:59:16;;;;;;;9.95;2.95;;;;;;;;;;6365007;22;20004;-75
2023/12/20 13:01:42;;;;;;;13.48;2.83;;;;;;;;;;6390991;22;20392;-75
2023/12/20 13:04:10;;;;;;;11.75;2.60;;;;;;;;;;6362693;22;20536;-76
2023/12/20 13:06:37;;;;;;;14.48;3.28;;;;;;;;;;6390446;22;20041;-75
2023/12/20 13:09:04;;;;;;;12.40;2.90;;;;;;;;;;6361546;22;20391;-75
2023/12/20 13:11:31;;;;;;;9.63;2.85;;;;;;;;;;6360091;22;20357;-75
2023/12/20 13:13:57;;;;;;;15.20;3.15;;;;;;;;;;6387882;22;20094;-75
2023/12/20 13:16:24;;;;;;;10.65;2.75;;;;;;;;;;6390109;22;20021;-76
2023/12/20 13:18:49;;;;;;;12.20;2.95;;;;;;;;;;6390180;22;20014;-75
2023/12/20 13:21:16;;;;;;;16.30;3.05;;;;;;;;;;6389659;22;20013;-75
2023/12/20 13:23:41;;;;;;;10.93;2.88;;;;;;;;;;6390540;22;20066;-75
2023/12/20 13:26:07;;;;;;;9.32;2.53;;;;;;;;;;6390439;22;20037;-75
2023/12/20 13:28:33;;;;;;;12.45;3.13;;;;;;;;;;6361152;22;20013;-76
2023/12/20 13:30:58;;;;;;;11.90;2.75;;;;;;;;;;6389035;22;20486;-75
2023/12/20 13:33:23;;;;;;;9.70;2.42;;;;;;;;;;6362027;22;20101;-76
2023/12/20 13:35:49;;;;;;;10.60;2.38;;;;;;;;;;6389471;22;20005;-75
2023/12/20 13:38:14;;;;;;;4.43;1.92;;;;;;;;;;6390742;22;19998;-75
2023/12/20 13:40:40;;;;;;;16.30;3.40;;;;;;;;;;6390722;22;20022;-76
2023/12/20 13:43:05;;;;;;;13.95;2.75;;;;;;;;;;6389100;22;20016;-75
2023/12/20 13:45:31;;;;;;;7.95;2.15;;;;;;;;;;6389158;22;20687;-75
2023/12/20 13:47:58;;;;;;;13.00;3.15;;;;;;;;;;6389524;22;20047;-75
2023/12/20 13:50:24;;;;;;;11.30;2.00;;;;;;;;;;6389761;22;19997;-75
2023/12/20 13:52:49;;;;;;;8.48;2.55;;;;;;;;;;6389501;22;20009;-75
2023/12/20 13:55:15;;;;;;;8.02;2.20;;;;;;;;;;6389223;22;20014;-75
2023/12/20 13:57:41;;;;;;;9.70;2.17;;;;;;;;;;6389674;22;20369;-75
2023/12/20 14:00:14;;;;;;;7.03;2.13;;;;;;;;;;6360965;22;20018;-75
2023/12/20 14:02:39;;;;;;;8.02;2.25;;;;;;;;;;6362608;22;20036;-75
2023/12/20 14:05:06;;;;;;;11.88;2.83;;;;;;;;;;6389809;22;20393;-75
2023/12/20 14:07:31;;;;;;;9.30;2.05;;;;;;;;;;6390651;22;20029;-75
2023/12/20 14:09:56;;;;;;;11.50;2.67;;;;;;;;;;6395532;22;20018;-75
2023/12/20 14:12:22;;;;;;;10.23;1.75;;;;;;;;;;6404386;22;20006;-75
2023/12/20 14:14:47;;;;;;;8.45;2.10;;;;;;;;;;6369946;22;20001;-75
2023/12/20 14:17:13;;;;;;;10.77;2.03;;;;;;;;;;6390236;22;20005;-75
2023/12/20 14:19:39;;;;;;;5.13;2.00;;;;;;;;;;6389537;22;20477;-76
2023/12/20 14:22:05;;;;;;;11.63;2.40;;;;;;;;;;6389648;22;20014;-75
2023/12/20 14:24:30;;;;;;;8.73;2.38;;;;;;;;;;6388739;22;20052;-75
2023/12/20 14:26:56;;;;;;;9.27;2.72;;;;;;;;;;6389428;22;19998;-75